sensor_id;sensor_type;location;lat;lon;timestamp;temperature;humidity
1536;DHT22;761;50.074;8.228;2022-11-03T00:01:36;8.00;1.00
1536;DHT22;761;50.074;8.228;2022-11-03T00:04:06;8.00;1.00
1536;DHT22;761;50.074;8.228;2022-11-03T00:06:35;8.00;1.00
1536;DHT22;761;50.074;8.228;2022-11-03T00:09:07;7.90;1.00
1536;DHT22;761;50.074;8.228;2022-11-03T00:11:37;7.90;1.00
1536;DHT22;761;50.074;8.228;2022-11-03T00:14:07;8.10;1.00
1536;DHT22;761;50.074;8.228;2022-11-03T00:16:36;8.00;1.00
1536;DHT22;761;50.074;8.228;2022-11-03T00:19:05;8.00;1.00
1536;DHT22;761;50.074;8.228;2022-11-03T00:21:34;8.10;1.00
1536;DHT22;761;50.074;8.228;2022-11-03T00:24:03;8.00;1.00
1536;DHT22;761;50.074;8.228;2022-11-03T00:26:33;7.90;1.00
1536;DHT22;761;50.074;8.228;2022-11-03T00:29:07;7.80;1.00
1536;DHT22;761;50.074;8.228;2022-11-03T00:31:38;7.70;1.00
1536;DHT22;761;50.074;8.228;2022-11-03T00:34:06;7.50;1.00
1536;DHT22;761;50.074;8.228;2022-11-03T00:36:39;7.50;1.00
1536;DHT22;761;50.074;8.228;2022-11-03T00:39:07;7.30;1.00
1536;DHT22;761;50.074;8.228;2022-11-03T00:41:39;7.30;1.00
1536;DHT22;761;50.074;8.228;2022-11-03T00:44:08;7.30;1.00
1536;DHT22;761;50.074;8.228;2022-11-03T00:46:41;7.30;1.00
1536;DHT22;761;50.074;8.228;2022-11-03T00:49:09;7.30;1.00
1536;DHT22;761;50.074;8.228;2022-11-03T00:51:37;7.30;1.00
1536;DHT22;761;50.074;8.228;2022-11-03T00:54:06;7.30;1.00
1536;DHT22;761;50.074;8.228;2022-11-03T00:56:35;7.40;1.00
1536;DHT22;761;50.074;8.228;2022-11-03T00:59:05;7.50;1.00
1536;DHT22;761;50.074;8.228;2022-11-03T01:01:39;7.50;1.00
1536;DHT22;761;50.074;8.228;2022-11-03T01:04:13;7.50;1.00
1536;DHT22;761;50.074;8.228;2022-11-03T01:07:00;7.50;1.00
1536;DHT22;761;50.074;8.228;2022-11-03T01:09:29;7.40;1.00
1536;DHT22;761;50.074;8.228;2022-11-03T01:11:59;7.30;1.00
1536;DHT22;761;50.074;8.228;2022-11-03T01:14:30;7.30;1.00
1536;DHT22;761;50.074;8.228;2022-11-03T01:17:00;7.20;1.00
1536;DHT22;761;50.074;8.228;2022-11-03T01:19:28;7.10;1.00
1536;DHT22;761;50.074;8.228;2022-11-03T01:21:57;7.10;1.00
1536;DHT22;761;50.074;8.228;2022-11-03T01:24:25;7.00;1.00
1536;DHT22;761;50.074;8.228;2022-11-03T01:26:54;7.10;1.00
1536;DHT22;761;50.074;8.228;2022-11-03T01:29:22;7.10;1.00
1536;DHT22;761;50.074;8.228;2022-11-03T01:31:55;7.30;1.00
1536;DHT22;761;50.074;8.228;2022-11-03T01:34:26;7.10;1.00
1536;DHT22;761;50.074;8.228;2022-11-03T01:36:56;7.20;1.00
1536;DHT22;761;50.074;8.228;2022-11-03T01:39:24;7.30;1.00
1536;DHT22;761;50.074;8.228;2022-11-03T01:41:53;7.30;1.00
1536;DHT22;761;50.074;8.228;2022-11-03T01:44:33;7.30;1.00
1536;DHT22;761;50.074;8.228;2022-11-03T01:47:14;7.20;1.00
1536;DHT22;761;50.074;8.228;2022-11-03T01:49:49;7.10;1.00
1536;DHT22;761;50.074;8.228;2022-11-03T01:52:23;7.10;1.00
1536;DHT22;761;50.074;8.228;2022-11-03T01:54:57;7.20;1.00
1536;DHT22;761;50.074;8.228;2022-11-03T01:57:33;7.10;1.00
1536;DHT22;761;50.074;8.228;2022-11-03T02:00:03;7.10;1.00
1536;DHT22;761;50.074;8.228;2022-11-03T02:02:38;7.10;1.00
1536;DHT22;761;50.074;8.228;2022-11-03T02:05:09;7.20;1.00
1536;DHT22;761;50.074;8.228;2022-11-03T02:07:42;7.20;1.00
1536;DHT22;761;50.074;8.228;2022-11-03T02:10:13;7.20;1.00
1536;DHT22;761;50.074;8.228;2022-11-03T02:12:42;7.00;1.00
1536;DHT22;761;50.074;8.228;2022-11-03T02:15:13;6.80;1.00
1536;DHT22;761;50.074;8.228;2022-11-03T02:17:46;6.80;1.00
1536;DHT22;761;50.074;8.228;2022-11-03T02:20:21;6.80;1.00
1536;DHT22;761;50.074;8.228;2022-11-03T02:23:14;6.80;1.00
1536;DHT22;761;50.074;8.228;2022-11-03T02:25:46;6.60;1.00
1536;DHT22;761;50.074;8.228;2022-11-03T02:28:17;6.60;1.00
1536;DHT22;761;50.074;8.228;2022-11-03T02:30:52;6.60;1.00
1536;DHT22;761;50.074;8.228;2022-11-03T02:33:35;6.60;1.00
1536;DHT22;761;50.074;8.228;2022-11-03T02:36:09;6.60;1.00
1536;DHT22;761;50.074;8.228;2022-11-03T02:38:45;6.50;1.00
1536;DHT22;761;50.074;8.228;2022-11-03T02:41:16;6.60;1.00
1536;DHT22;761;50.074;8.228;2022-11-03T02:43:47;6.70;1.00
1536;DHT22;761;50.074;8.228;2022-11-03T02:46:16;6.50;1.00
1536;DHT22;761;50.074;8.228;2022-11-03T02:48:45;6.50;1.00
1536;DHT22;761;50.074;8.228;2022-11-03T02:51:14;6.50;1.00
1536;DHT22;761;50.074;8.228;2022-11-03T02:53:45;6.50;1.00
1536;DHT22;761;50.074;8.228;2022-11-03T02:56:19;6.50;1.00
1536;DHT22;761;50.074;8.228;2022-11-03T02:58:54;6.40;1.00
1536;DHT22;761;50.074;8.228;2022-11-03T03:01:30;6.50;1.00
1536;DHT22;761;50.074;8.228;2022-11-03T03:04:04;6.40;1.00
1536;DHT22;761;50.074;8.228;2022-11-03T03:06:38;6.40;1.00
1536;DHT22;761;50.074;8.228;2022-11-03T03:09:13;6.40;1.00
1536;DHT22;761;50.074;8.228;2022-11-03T03:11:46;6.30;1.00
1536;DHT22;761;50.074;8.228;2022-11-03T03:14:18;6.30;1.00
1536;DHT22;761;50.074;8.228;2022-11-03T03:16:51;6.30;1.00
1536;DHT22;761;50.074;8.228;2022-11-03T03:19:29;6.30;1.00
1536;DHT22;761;50.074;8.228;2022-11-03T03:22:02;6.30;1.00
1536;DHT22;761;50.074;8.228;2022-11-03T03:24:38;6.30;1.00
1536;DHT22;761;50.074;8.228;2022-11-03T03:27:11;6.30;1.00
1536;DHT22;761;50.074;8.228;2022-11-03T03:29:43;6.30;1.00
1536;DHT22;761;50.074;8.228;2022-11-03T03:32:15;6.30;1.00
1536;DHT22;761;50.074;8.228;2022-11-03T03:34:48;6.40;1.00
1536;DHT22;761;50.074;8.228;2022-11-03T03:37:18;6.40;1.00
1536;DHT22;761;50.074;8.228;2022-11-03T03:39:50;6.40;1.00
1536;DHT22;761;50.074;8.228;2022-11-03T03:42:23;6.40;1.00
1536;DHT22;761;50.074;8.228;2022-11-03T03:44:53;6.50;1.00
1536;DHT22;761;50.074;8.228;2022-11-03T03:47:26;6.70;1.00
1536;DHT22;761;50.074;8.228;2022-11-03T03:49:55;6.60;1.00
1536;DHT22;761;50.074;8.228;2022-11-03T03:52:23;6.70;1.00
1536;DHT22;761;50.074;8.228;2022-11-03T03:54:53;6.60;1.00
1536;DHT22;761;50.074;8.228;2022-11-03T03:57:24;6.50;1.00
1536;DHT22;761;50.074;8.228;2022-11-03T03:59:57;6.40;1.00
1536;DHT22;761;50.074;8.228;2022-11-03T04:02:25;6.40;1.00
1536;DHT22;761;50.074;8.228;2022-11-03T04:04:53;6.30;1.00
1536;DHT22;761;50.074;8.228;2022-11-03T04:07:21;6.40;1.00
1536;DHT22;761;50.074;8.228;2022-11-03T04:10:09;6.40;1.00
1536;DHT22;761;50.074;8.228;2022-11-03T04:12:40;6.30;1.00
1536;DHT22;761;50.074;8.228;2022-11-03T04:15:38;6.40;1.00
1536;DHT22;761;50.074;8.228;2022-11-03T04:18:23;6.40;1.00
1536;DHT22;761;50.074;8.228;2022-11-03T04:21:11;6.40;1.00
1536;DHT22;761;50.074;8.228;2022-11-03T04:23:57;6.40;1.00
1536;DHT22;761;50.074;8.228;2022-11-03T04:26:27;6.40;1.00
1536;DHT22;761;50.074;8.228;2022-11-03T04:28:57;6.40;1.00
1536;DHT22;761;50.074;8.228;2022-11-03T04:31:35;6.40;1.00
1536;DHT22;761;50.074;8.228;2022-11-03T04:34:03;6.40;1.00
1536;DHT22;761;50.074;8.228;2022-11-03T04:36:36;6.50;1.00
1536;DHT22;761;50.074;8.228;2022-11-03T04:39:12;6.40;1.00
1536;DHT22;761;50.074;8.228;2022-11-03T04:41:42;6.40;1.00
1536;DHT22;761;50.074;8.228;2022-11-03T04:44:14;6.30;1.00
1536;DHT22;761;50.074;8.228;2022-11-03T04:46:43;6.30;1.00
1536;DHT22;761;50.074;8.228;2022-11-03T04:49:19;6.30;1.00
1536;DHT22;761;50.074;8.228;2022-11-03T04:51:48;6.40;1.00
1536;DHT22;761;50.074;8.228;2022-11-03T04:54:22;6.40;1.00
1536;DHT22;761;50.074;8.228;2022-11-03T04:56:50;6.30;1.00
1536;DHT22;761;50.074;8.228;2022-11-03T04:59:20;6.30;1.00
1536;DHT22;761;50.074;8.228;2022-11-03T05:01:48;6.30;1.00
1536;DHT22;761;50.074;8.228;2022-11-03T05:04:17;6.40;1.00
1536;DHT22;761;50.074;8.228;2022-11-03T05:06:49;6.40;1.00
1536;DHT22;761;50.074;8.228;2022-11-03T05:09:22;6.30;1.00
1536;DHT22;761;50.074;8.228;2022-11-03T05:11:51;6.50;1.00
1536;DHT22;761;50.074;8.228;2022-11-03T05:14:23;6.40;1.00
1536;DHT22;761;50.074;8.228;2022-11-03T05:16:53;6.30;1.00
1536;DHT22;761;50.074;8.228;2022-11-03T05:19:24;6.30;1.00
1536;DHT22;761;50.074;8.228;2022-11-03T05:21:55;6.30;1.00
1536;DHT22;761;50.074;8.228;2022-11-03T05:24:25;6.30;1.00
1536;DHT22;761;50.074;8.228;2022-11-03T05:26:54;6.40;1.00
1536;DHT22;761;50.074;8.228;2022-11-03T05:29:33;6.40;1.00
1536;DHT22;761;50.074;8.228;2022-11-03T05:32:02;6.30;1.00
1536;DHT22;761;50.074;8.228;2022-11-03T05:34:34;6.30;1.00
1536;DHT22;761;50.074;8.228;2022-11-03T05:37:21;6.30;1.00
1536;DHT22;761;50.074;8.228;2022-11-03T05:39:55;6.20;1.00
1536;DHT22;761;50.074;8.228;2022-11-03T05:42:30;6.20;1.00
1536;DHT22;761;50.074;8.228;2022-11-03T05:45:07;6.20;1.00
1536;DHT22;761;50.074;8.228;2022-11-03T05:47:41;6.10;1.00
1536;DHT22;761;50.074;8.228;2022-11-03T05:50:15;6.10;1.00
1536;DHT22;761;50.074;8.228;2022-11-03T05:52:45;6.10;1.00
1536;DHT22;761;50.074;8.228;2022-11-03T05:55:23;6.10;1.00
1536;DHT22;761;50.074;8.228;2022-11-03T05:57:55;6.40;1.00
1536;DHT22;761;50.074;8.228;2022-11-03T06:00:27;6.50;1.00
1536;DHT22;761;50.074;8.228;2022-11-03T06:02:57;6.50;1.00
1536;DHT22;761;50.074;8.228;2022-11-03T06:05:27;6.50;1.00
1536;DHT22;761;50.074;8.228;2022-11-03T06:07:59;6.40;1.00
1536;DHT22;761;50.074;8.228;2022-11-03T06:10:30;6.20;1.00
1536;DHT22;761;50.074;8.228;2022-11-03T06:13:01;6.10;1.00
1536;DHT22;761;50.074;8.228;2022-11-03T06:15:34;5.80;1.00
1536;DHT22;761;50.074;8.228;2022-11-03T06:18:12;5.80;1.00
1536;DHT22;761;50.074;8.228;2022-11-03T06:20:46;5.80;1.00
1536;DHT22;761;50.074;8.228;2022-11-03T06:23:18;5.80;1.00
1536;DHT22;761;50.074;8.228;2022-11-03T06:25:48;5.80;1.00
1536;DHT22;761;50.074;8.228;2022-11-03T06:28:19;5.80;1.00
1536;DHT22;761;50.074;8.228;2022-11-03T06:30:53;5.90;1.00
1536;DHT22;761;50.074;8.228;2022-11-03T06:33:24;5.90;1.00
1536;DHT22;761;50.074;8.228;2022-11-03T06:35:54;6.00;1.00
1536;DHT22;761;50.074;8.228;2022-11-03T06:38:27;6.10;1.00
1536;DHT22;761;50.074;8.228;2022-11-03T06:40:57;6.10;1.00
1536;DHT22;761;50.074;8.228;2022-11-03T06:43:30;6.20;1.00
1536;DHT22;761;50.074;8.228;2022-11-03T06:46:08;6.10;1.00
1536;DHT22;761;50.074;8.228;2022-11-03T06:48:39;6.20;1.00
1536;DHT22;761;50.074;8.228;2022-11-03T06:51:14;6.20;1.00
1536;DHT22;761;50.074;8.228;2022-11-03T06:53:42;6.30;1.00
1536;DHT22;761;50.074;8.228;2022-11-03T06:56:12;6.40;1.00
1536;DHT22;761;50.074;8.228;2022-11-03T07:01:18;6.30;1.00
1536;DHT22;761;50.074;8.228;2022-11-03T07:03:48;6.20;1.00
1536;DHT22;761;50.074;8.228;2022-11-03T07:06:20;6.40;1.00
1536;DHT22;761;50.074;8.228;2022-11-03T07:08:52;6.50;1.00
1536;DHT22;761;50.074;8.228;2022-11-03T07:11:22;6.60;1.00
1536;DHT22;761;50.074;8.228;2022-11-03T07:13:53;6.60;1.00
1536;DHT22;761;50.074;8.228;2022-11-03T07:16:28;6.70;1.00
1536;DHT22;761;50.074;8.228;2022-11-03T07:18:59;6.90;1.00
1536;DHT22;761;50.074;8.228;2022-11-03T07:21:32;6.90;1.00
1536;DHT22;761;50.074;8.228;2022-11-03T07:24:03;7.30;1.00
1536;DHT22;761;50.074;8.228;2022-11-03T07:26:32;7.10;1.00
1536;DHT22;761;50.074;8.228;2022-11-03T07:29:01;7.10;1.00
1536;DHT22;761;50.074;8.228;2022-11-03T07:31:31;7.10;1.00
1536;DHT22;761;50.074;8.228;2022-11-03T07:33:59;7.20;1.00
1536;DHT22;761;50.074;8.228;2022-11-03T07:36:30;7.20;1.00
1536;DHT22;761;50.074;8.228;2022-11-03T07:39:00;7.30;1.00
1536;DHT22;761;50.074;8.228;2022-11-03T07:41:31;7.40;1.00
1536;DHT22;761;50.074;8.228;2022-11-03T07:44:01;7.40;1.00
1536;DHT22;761;50.074;8.228;2022-11-03T07:46:31;7.40;1.00
1536;DHT22;761;50.074;8.228;2022-11-03T07:49:00;7.50;1.00
1536;DHT22;761;50.074;8.228;2022-11-03T07:51:31;7.60;1.00
1536;DHT22;761;50.074;8.228;2022-11-03T07:54:02;7.70;1.00
1536;DHT22;761;50.074;8.228;2022-11-03T07:56:33;7.80;1.00
1536;DHT22;761;50.074;8.228;2022-11-03T07:59:12;7.80;1.00
1536;DHT22;761;50.074;8.228;2022-11-03T08:01:47;8.00;1.00
1536;DHT22;761;50.074;8.228;2022-11-03T08:04:19;8.10;1.00
1536;DHT22;761;50.074;8.228;2022-11-03T08:06:48;8.20;1.00
1536;DHT22;761;50.074;8.228;2022-11-03T08:09:17;8.20;1.00
1536;DHT22;761;50.074;8.228;2022-11-03T08:14:14;8.40;1.00
1536;DHT22;761;50.074;8.228;2022-11-03T08:16:44;8.40;1.00
1536;DHT22;761;50.074;8.228;2022-11-03T08:21:42;8.70;1.00
1536;DHT22;761;50.074;8.228;2022-11-03T08:24:10;8.80;1.00
1536;DHT22;761;50.074;8.228;2022-11-03T08:26:38;8.90;1.00
1536;DHT22;761;50.074;8.228;2022-11-03T08:29:06;8.90;1.00
1536;DHT22;761;50.074;8.228;2022-11-03T08:31:36;8.90;1.00
1536;DHT22;761;50.074;8.228;2022-11-03T08:34:06;8.90;1.00
1536;DHT22;761;50.074;8.228;2022-11-03T08:36:34;9.10;1.00
1536;DHT22;761;50.074;8.228;2022-11-03T08:39:04;9.30;1.00
1536;DHT22;761;50.074;8.228;2022-11-03T08:41:32;9.80;1.00
1536;DHT22;761;50.074;8.228;2022-11-03T08:44:03;9.90;1.00
1536;DHT22;761;50.074;8.228;2022-11-03T08:46:32;9.90;1.00
1536;DHT22;761;50.074;8.228;2022-11-03T08:49:03;9.90;1.00
1536;DHT22;761;50.074;8.228;2022-11-03T08:54:05;10.00;1.00
1536;DHT22;761;50.074;8.228;2022-11-03T08:56:34;9.90;1.00
1536;DHT22;761;50.074;8.228;2022-11-03T08:59:02;10.00;1.00
1536;DHT22;761;50.074;8.228;2022-11-03T09:01:30;10.00;1.00
1536;DHT22;761;50.074;8.228;2022-11-03T09:03:58;10.20;1.00
1536;DHT22;761;50.074;8.228;2022-11-03T09:06:26;10.20;1.00
1536;DHT22;761;50.074;8.228;2022-11-03T09:08:56;9.90;1.00
1536;DHT22;761;50.074;8.228;2022-11-03T09:11:44;9.90;1.00
1536;DHT22;761;50.074;8.228;2022-11-03T09:14:13;9.90;1.00
1536;DHT22;761;50.074;8.228;2022-11-03T09:16:41;10.20;1.00
1536;DHT22;761;50.074;8.228;2022-11-03T09:19:09;10.60;1.00
1536;DHT22;761;50.074;8.228;2022-11-03T09:21:37;10.70;1.00
1536;DHT22;761;50.074;8.228;2022-11-03T09:24:07;10.80;1.00
1536;DHT22;761;50.074;8.228;2022-11-03T09:26:38;11.00;1.00
1536;DHT22;761;50.074;8.228;2022-11-03T09:29:09;10.70;1.00
1536;DHT22;761;50.074;8.228;2022-11-03T09:31:37;10.80;1.00
1536;DHT22;761;50.074;8.228;2022-11-03T09:34:05;11.00;1.00
1536;DHT22;761;50.074;8.228;2022-11-03T09:36:36;11.10;1.00
1536;DHT22;761;50.074;8.228;2022-11-03T09:39:04;11.30;1.00
1536;DHT22;761;50.074;8.228;2022-11-03T09:41:34;11.30;1.00
1536;DHT22;761;50.074;8.228;2022-11-03T09:44:23;11.40;1.00
1536;DHT22;761;50.074;8.228;2022-11-03T09:46:52;11.30;1.00
1536;DHT22;761;50.074;8.228;2022-11-03T09:49:25;11.30;1.00
1536;DHT22;761;50.074;8.228;2022-11-03T09:54:26;11.30;1.00
1536;DHT22;761;50.074;8.228;2022-11-03T09:56:58;11.40;1.00
1536;DHT22;761;50.074;8.228;2022-11-03T10:02:15;11.50;1.00
1536;DHT22;761;50.074;8.228;2022-11-03T10:04:46;11.60;1.00
1536;DHT22;761;50.074;8.228;2022-11-03T10:07:14;11.50;1.00
1536;DHT22;761;50.074;8.228;2022-11-03T10:09:46;11.50;1.00
1536;DHT22;761;50.074;8.228;2022-11-03T10:12:16;11.50;1.00
1536;DHT22;761;50.074;8.228;2022-11-03T10:14:45;11.40;1.00
1536;DHT22;761;50.074;8.228;2022-11-03T10:17:16;11.60;1.00
1536;DHT22;761;50.074;8.228;2022-11-03T10:19:47;14.00;1.00
1536;DHT22;761;50.074;8.228;2022-11-03T10:22:16;11.90;1.00
1536;DHT22;761;50.074;8.228;2022-11-03T10:24:45;11.80;1.00
1536;DHT22;761;50.074;8.228;2022-11-03T10:27:22;11.60;1.00
1536;DHT22;761;50.074;8.228;2022-11-03T10:30:05;11.80;1.00
1536;DHT22;761;50.074;8.228;2022-11-03T10:32:34;11.80;1.00
1536;DHT22;761;50.074;8.228;2022-11-03T10:37:51;11.70;1.00
1536;DHT22;761;50.074;8.228;2022-11-03T10:40:33;11.80;1.00
1536;DHT22;761;50.074;8.228;2022-11-03T10:43:19;11.90;1.00
1536;DHT22;761;50.074;8.228;2022-11-03T10:45:47;11.80;1.00
1536;DHT22;761;50.074;8.228;2022-11-03T10:48:16;12.00;1.00
1536;DHT22;761;50.074;8.228;2022-11-03T10:50:44;12.00;1.00
1536;DHT22;761;50.074;8.228;2022-11-03T10:53:15;12.00;1.00
1536;DHT22;761;50.074;8.228;2022-11-03T10:55:44;12.00;1.00
1536;DHT22;761;50.074;8.228;2022-11-03T10:58:13;12.00;1.00
1536;DHT22;761;50.074;8.228;2022-11-03T11:00:42;11.90;1.00
1536;DHT22;761;50.074;8.228;2022-11-03T11:03:11;11.60;1.00
1536;DHT22;761;50.074;8.228;2022-11-03T11:05:46;11.80;1.00
1536;DHT22;761;50.074;8.228;2022-11-03T11:08:22;12.00;1.00
1536;DHT22;761;50.074;8.228;2022-11-03T11:10:53;11.90;1.00
1536;DHT22;761;50.074;8.228;2022-11-03T11:13:26;12.00;1.00
1536;DHT22;761;50.074;8.228;2022-11-03T11:15:59;12.00;1.00
1536;DHT22;761;50.074;8.228;2022-11-03T11:21:58;11.90;1.00
1536;DHT22;761;50.074;8.228;2022-11-03T11:24:56;12.00;1.00
1536;DHT22;761;50.074;8.228;2022-11-03T11:40:13;11.80;1.00
1536;DHT22;761;50.074;8.228;2022-11-03T11:43:24;11.90;1.00
1536;DHT22;761;50.074;8.228;2022-11-03T11:46:30;11.90;1.00
1536;DHT22;761;50.074;8.228;2022-11-03T11:49:18;11.80;1.00
1536;DHT22;761;50.074;8.228;2022-11-03T11:51:46;11.70;1.00
1536;DHT22;761;50.074;8.228;2022-11-03T11:54:17;11.80;1.00
1536;DHT22;761;50.074;8.228;2022-11-03T11:56:48;11.70;1.00
1536;DHT22;761;50.074;8.228;2022-11-03T11:59:20;11.70;1.00
1536;DHT22;761;50.074;8.228;2022-11-03T12:01:54;11.60;1.00
1536;DHT22;761;50.074;8.228;2022-11-03T12:04:25;11.60;1.00
1536;DHT22;761;50.074;8.228;2022-11-03T12:06:57;11.40;1.00
1536;DHT22;761;50.074;8.228;2022-11-03T12:09:26;11.70;1.00
1536;DHT22;761;50.074;8.228;2022-11-03T12:11:58;11.70;1.00
1536;DHT22;761;50.074;8.228;2022-11-03T12:14:35;11.70;1.00
1536;DHT22;761;50.074;8.228;2022-11-03T12:17:33;11.80;1.00
1536;DHT22;761;50.074;8.228;2022-11-03T12:20:33;11.70;1.00
1536;DHT22;761;50.074;8.228;2022-11-03T12:23:01;11.70;1.00
1536;DHT22;761;50.074;8.228;2022-11-03T12:25:34;11.70;1.00
1536;DHT22;761;50.074;8.228;2022-11-03T12:28:04;11.80;1.00
1536;DHT22;761;50.074;8.228;2022-11-03T12:30:33;11.90;1.00
1536;DHT22;761;50.074;8.228;2022-11-03T12:33:06;11.80;1.00
1536;DHT22;761;50.074;8.228;2022-11-03T12:35:37;11.90;1.00
1536;DHT22;761;50.074;8.228;2022-11-03T12:38:05;11.70;1.00
1536;DHT22;761;50.074;8.228;2022-11-03T12:40:33;11.90;1.00
1536;DHT22;761;50.074;8.228;2022-11-03T12:43:01;11.80;1.00
1536;DHT22;761;50.074;8.228;2022-11-03T12:45:31;11.70;1.00
1536;DHT22;761;50.074;8.228;2022-11-03T12:48:02;11.70;1.00
1536;DHT22;761;50.074;8.228;2022-11-03T12:50:31;11.60;1.00
1536;DHT22;761;50.074;8.228;2022-11-03T12:53:01;11.60;1.00
1536;DHT22;761;50.074;8.228;2022-11-03T12:55:30;11.70;1.00
1536;DHT22;761;50.074;8.228;2022-11-03T12:57:58;11.80;1.00
1536;DHT22;761;50.074;8.228;2022-11-03T13:00:26;11.90;1.00
1536;DHT22;761;50.074;8.228;2022-11-03T13:02:55;12.00;1.00
1536;DHT22;761;50.074;8.228;2022-11-03T13:05:24;12.00;1.00
1536;DHT22;761;50.074;8.228;2022-11-03T13:07:52;11.90;1.00
1536;DHT22;761;50.074;8.228;2022-11-03T13:10:20;11.70;1.00
1536;DHT22;761;50.074;8.228;2022-11-03T13:12:49;11.70;1.00
1536;DHT22;761;50.074;8.228;2022-11-03T13:15:17;11.70;1.00
1536;DHT22;761;50.074;8.228;2022-11-03T13:17:46;11.70;1.00
1536;DHT22;761;50.074;8.228;2022-11-03T13:20:35;11.80;1.00
1536;DHT22;761;50.074;8.228;2022-11-03T13:23:04;11.80;1.00
1536;DHT22;761;50.074;8.228;2022-11-03T13:25:33;11.80;1.00
1536;DHT22;761;50.074;8.228;2022-11-03T13:28:01;11.70;1.00
1536;DHT22;761;50.074;8.228;2022-11-03T13:30:32;11.70;1.00
1536;DHT22;761;50.074;8.228;2022-11-03T13:33:00;11.70;1.00
1536;DHT22;761;50.074;8.228;2022-11-03T13:35:28;11.80;1.00
1536;DHT22;761;50.074;8.228;2022-11-03T13:37:59;11.80;1.00
1536;DHT22;761;50.074;8.228;2022-11-03T13:40:27;11.80;1.00
1536;DHT22;761;50.074;8.228;2022-11-03T13:43:15;11.70;1.00
1536;DHT22;761;50.074;8.228;2022-11-03T13:45:44;11.70;1.00
1536;DHT22;761;50.074;8.228;2022-11-03T13:48:13;11.60;1.00
1536;DHT22;761;50.074;8.228;2022-11-03T13:51:07;11.70;1.00
1536;DHT22;761;50.074;8.228;2022-11-03T13:53:39;11.70;1.00
1536;DHT22;761;50.074;8.228;2022-11-03T13:56:28;11.70;1.00
1536;DHT22;761;50.074;8.228;2022-11-03T13:58:58;11.80;1.00
1536;DHT22;761;50.074;8.228;2022-11-03T14:01:46;11.80;1.00
1536;DHT22;761;50.074;8.228;2022-11-03T14:04:36;11.70;1.00
1536;DHT22;761;50.074;8.228;2022-11-03T14:07:10;11.80;1.00
1536;DHT22;761;50.074;8.228;2022-11-03T14:09:40;10.60;1.00
1536;DHT22;761;50.074;8.228;2022-11-03T14:12:08;11.80;1.00
1536;DHT22;761;50.074;8.228;2022-11-03T14:14:54;11.80;1.00
1536;DHT22;761;50.074;8.228;2022-11-03T14:17:23;11.70;1.00
1536;DHT22;761;50.074;8.228;2022-11-03T14:19:51;11.90;1.00
1536;DHT22;761;50.074;8.228;2022-11-03T14:22:28;12.00;1.00
1536;DHT22;761;50.074;8.228;2022-11-03T14:25:01;11.90;1.00
1536;DHT22;761;50.074;8.228;2022-11-03T14:27:31;11.90;1.00
1536;DHT22;761;50.074;8.228;2022-11-03T14:30:00;11.90;1.00
1536;DHT22;761;50.074;8.228;2022-11-03T14:32:28;12.00;1.00
1536;DHT22;761;50.074;8.228;2022-11-03T14:34:57;12.00;1.00
1536;DHT22;761;50.074;8.228;2022-11-03T14:37:27;12.00;1.00
1536;DHT22;761;50.074;8.228;2022-11-03T14:39:56;12.00;1.00
1536;DHT22;761;50.074;8.228;2022-11-03T14:42:26;12.10;1.00
1536;DHT22;761;50.074;8.228;2022-11-03T14:44:53;12.00;1.00
1536;DHT22;761;50.074;8.228;2022-11-03T14:47:22;12.00;1.00
1536;DHT22;761;50.074;8.228;2022-11-03T14:49:51;12.00;1.00
1536;DHT22;761;50.074;8.228;2022-11-03T14:52:20;12.00;1.00
1536;DHT22;761;50.074;8.228;2022-11-03T14:54:51;12.00;1.00
1536;DHT22;761;50.074;8.228;2022-11-03T14:57:19;12.00;1.00
1536;DHT22;761;50.074;8.228;2022-11-03T14:59:49;12.00;1.00
1536;DHT22;761;50.074;8.228;2022-11-03T15:02:19;11.90;1.00
1536;DHT22;761;50.074;8.228;2022-11-03T15:04:48;12.00;1.00
1536;DHT22;761;50.074;8.228;2022-11-03T15:07:16;12.00;1.00
1536;DHT22;761;50.074;8.228;2022-11-03T15:09:45;12.10;1.00
1536;DHT22;761;50.074;8.228;2022-11-03T15:12:13;12.10;1.00
1536;DHT22;761;50.074;8.228;2022-11-03T15:14:41;12.00;1.00
1536;DHT22;761;50.074;8.228;2022-11-03T15:17:13;12.00;1.00
1536;DHT22;761;50.074;8.228;2022-11-03T15:19:44;12.00;1.00
1536;DHT22;761;50.074;8.228;2022-11-03T15:22:13;12.00;1.00
1536;DHT22;761;50.074;8.228;2022-11-03T15:24:42;12.10;1.00
1536;DHT22;761;50.074;8.228;2022-11-03T15:27:30;12.10;1.00
1536;DHT22;761;50.074;8.228;2022-11-03T15:29:59;12.00;1.00
1536;DHT22;761;50.074;8.228;2022-11-03T15:32:29;12.00;1.00
1536;DHT22;761;50.074;8.228;2022-11-03T15:35:03;11.90;1.00
1536;DHT22;761;50.074;8.228;2022-11-03T15:37:32;11.90;1.00
1536;DHT22;761;50.074;8.228;2022-11-03T15:40:04;12.00;1.00
1536;DHT22;761;50.074;8.228;2022-11-03T15:42:35;12.10;1.00
1536;DHT22;761;50.074;8.228;2022-11-03T15:45:04;12.10;1.00
1536;DHT22;761;50.074;8.228;2022-11-03T15:47:35;12.20;1.00
1536;DHT22;761;50.074;8.228;2022-11-03T15:50:06;12.10;1.00
1536;DHT22;761;50.074;8.228;2022-11-03T15:52:35;11.80;1.00
1536;DHT22;761;50.074;8.228;2022-11-03T15:55:05;11.60;1.00
1536;DHT22;761;50.074;8.228;2022-11-03T15:57:33;11.50;1.00
1536;DHT22;761;50.074;8.228;2022-11-03T16:00:04;11.40;1.00
1536;DHT22;761;50.074;8.228;2022-11-03T16:02:40;11.40;1.00
1536;DHT22;761;50.074;8.228;2022-11-03T16:05:10;11.50;1.00
1536;DHT22;761;50.074;8.228;2022-11-03T16:07:38;11.50;1.00
1536;DHT22;761;50.074;8.228;2022-11-03T16:10:07;11.50;1.00
1536;DHT22;761;50.074;8.228;2022-11-03T16:12:36;11.30;1.00
1536;DHT22;761;50.074;8.228;2022-11-03T16:15:06;11.30;1.00
1536;DHT22;761;50.074;8.228;2022-11-03T16:22:42;11.50;1.00
1536;DHT22;761;50.074;8.228;2022-11-03T16:25:15;11.60;1.00
1536;DHT22;761;50.074;8.228;2022-11-03T16:27:47;11.60;1.00
1536;DHT22;761;50.074;8.228;2022-11-03T16:30:17;11.50;1.00
1536;DHT22;761;50.074;8.228;2022-11-03T16:32:48;11.70;1.00
1536;DHT22;761;50.074;8.228;2022-11-03T16:35:21;11.90;1.00
1536;DHT22;761;50.074;8.228;2022-11-03T16:37:52;11.80;1.00
1536;DHT22;761;50.074;8.228;2022-11-03T16:40:20;11.70;1.00
1536;DHT22;761;50.074;8.228;2022-11-03T16:42:49;11.50;1.00
1536;DHT22;761;50.074;8.228;2022-11-03T16:45:21;11.30;1.00
1536;DHT22;761;50.074;8.228;2022-11-03T16:47:52;11.10;1.00
1536;DHT22;761;50.074;8.228;2022-11-03T16:50:22;11.10;1.00
1536;DHT22;761;50.074;8.228;2022-11-03T16:52:53;11.20;1.00
1536;DHT22;761;50.074;8.228;2022-11-03T16:55:22;11.20;1.00
1536;DHT22;761;50.074;8.228;2022-11-03T16:57:50;11.20;1.00
1536;DHT22;761;50.074;8.228;2022-11-03T17:00:20;11.10;1.00
1536;DHT22;761;50.074;8.228;2022-11-03T17:02:50;11.10;1.00
1536;DHT22;761;50.074;8.228;2022-11-03T17:05:19;11.00;1.00
1536;DHT22;761;50.074;8.228;2022-11-03T17:10:20;11.00;1.00
1536;DHT22;761;50.074;8.228;2022-11-03T17:12:48;11.10;1.00
1536;DHT22;761;50.074;8.228;2022-11-03T17:15:17;11.10;1.00
1536;DHT22;761;50.074;8.228;2022-11-03T17:17:45;11.20;1.00
1536;DHT22;761;50.074;8.228;2022-11-03T17:20:14;11.30;1.00
1536;DHT22;761;50.074;8.228;2022-11-03T17:22:43;11.40;1.00
1536;DHT22;761;50.074;8.228;2022-11-03T17:25:16;11.50;1.00
1536;DHT22;761;50.074;8.228;2022-11-03T17:27:49;11.50;1.00
1536;DHT22;761;50.074;8.228;2022-11-03T17:30:20;11.60;1.00
1536;DHT22;761;50.074;8.228;2022-11-03T17:32:50;11.60;1.00
1536;DHT22;761;50.074;8.228;2022-11-03T17:35:21;11.60;1.00
1536;DHT22;761;50.074;8.228;2022-11-03T17:37:51;11.60;1.00
1536;DHT22;761;50.074;8.228;2022-11-03T17:40:24;11.60;1.00
1536;DHT22;761;50.074;8.228;2022-11-03T17:42:53;11.60;1.00
1536;DHT22;761;50.074;8.228;2022-11-03T17:45:23;11.50;1.00
1536;DHT22;761;50.074;8.228;2022-11-03T17:47:55;11.60;1.00
1536;DHT22;761;50.074;8.228;2022-11-03T17:50:24;11.50;1.00
1536;DHT22;761;50.074;8.228;2022-11-03T17:52:52;11.40;1.00
1536;DHT22;761;50.074;8.228;2022-11-03T17:55:27;11.20;1.00
1536;DHT22;761;50.074;8.228;2022-11-03T17:58:00;11.00;1.00